sensor_id;sensor_type;location;lat;lon;timestamp;P1;durP1;ratioP1;P2;durP2;ratioP2
11488;SDS011;5801;50.804;12.638;2023-07-29T00:00:42;1.88;;;1.20;;
11488;SDS011;5801;50.804;12.638;2023-07-29T00:03:09;1.40;;;1.30;;
11488;SDS011;5801;50.804;12.638;2023-07-29T00:05:36;1.20;;;1.10;;
11488;SDS011;5801;50.804;12.638;2023-07-29T00:08:02;1.00;;;0.90;;
11488;SDS011;5801;50.804;12.638;2023-07-29T00:10:29;0.98;;;0.98;;
11488;SDS011;5801;50.804;12.638;2023-07-29T00:12:59;2.00;;;1.45;;
11488;SDS011;5801;50.804;12.638;2023-07-29T00:15:25;1.27;;;1.15;;
11488;SDS011;5801;50.804;12.638;2023-07-29T00:17:51;1.38;;;1.02;;
11488;SDS011;5801;50.804;12.638;2023-07-29T00:20:17;2.03;;;1.20;;
11488;SDS011;5801;50.804;12.638;2023-07-29T00:22:43;2.47;;;1.42;;
11488;SDS011;5801;50.804;12.638;2023-07-29T00:25:09;0.82;;;0.82;;
11488;SDS011;5801;50.804;12.638;2023-07-29T00:27:35;1.52;;;1.13;;
11488;SDS011;5801;50.804;12.638;2023-07-29T00:30:01;1.10;;;1.00;;
11488;SDS011;5801;50.804;12.638;2023-07-29T00:32:28;1.10;;;1.00;;
11488;SDS011;5801;50.804;12.638;2023-07-29T00:34:54;1.90;;;1.20;;
11488;SDS011;5801;50.804;12.638;2023-07-29T00:37:21;1.23;;;1.13;;
11488;SDS011;5801;50.804;12.638;2023-07-29T00:39:46;1.17;;;1.00;;
11488;SDS011;5801;50.804;12.638;2023-07-29T00:42:12;1.20;;;1.10;;
11488;SDS011;5801;50.804;12.638;2023-07-29T00:44:38;1.17;;;1.08;;
11488;SDS011;5801;50.804;12.638;2023-07-29T00:47:04;1.35;;;1.10;;
11488;SDS011;5801;50.804;12.638;2023-07-29T00:49:32;1.63;;;1.30;;
11488;SDS011;5801;50.804;12.638;2023-07-29T00:51:58;1.27;;;1.10;;
11488;SDS011;5801;50.804;12.638;2023-07-29T00:54:24;1.15;;;1.05;;
11488;SDS011;5801;50.804;12.638;2023-07-29T00:56:50;1.27;;;1.17;;
11488;SDS011;5801;50.804;12.638;2023-07-29T00:59:16;1.08;;;0.88;;
11488;SDS011;5801;50.804;12.638;2023-07-29T01:01:42;1.10;;;1.02;;
11488;SDS011;5801;50.804;12.638;2023-07-29T01:04:08;1.10;;;1.00;;
11488;SDS011;5801;50.804;12.638;2023-07-29T01:06:38;1.05;;;1.00;;
11488;SDS011;5801;50.804;12.638;2023-07-29T01:12:09;1.10;;;1.00;;
11488;SDS011;5801;50.804;12.638;2023-07-29T01:17:55;1.20;;;1.10;;
11488;SDS011;5801;50.804;12.638;2023-07-29T01:20:43;1.05;;;1.00;;
11488;SDS011;5801;50.804;12.638;2023-07-29T01:23:10;1.15;;;0.98;;
11488;SDS011;5801;50.804;12.638;2023-07-29T01:25:36;1.30;;;1.15;;
11488;SDS011;5801;50.804;12.638;2023-07-29T01:28:02;1.33;;;1.23;;
11488;SDS011;5801;50.804;12.638;2023-07-29T01:30:33;1.02;;;1.00;;
11488;SDS011;5801;50.804;12.638;2023-07-29T01:33:18;0.93;;;0.93;;
11488;SDS011;5801;50.804;12.638;2023-07-29T01:35:52;0.90;;;0.90;;
11488;SDS011;5801;50.804;12.638;2023-07-29T01:38:32;1.08;;;1.00;;
11488;SDS011;5801;50.804;12.638;2023-07-29T01:41:01;1.52;;;1.10;;
11488;SDS011;5801;50.804;12.638;2023-07-29T01:43:30;1.85;;;0.85;;
11488;SDS011;5801;50.804;12.638;2023-07-29T01:45:57;1.15;;;1.08;;
11488;SDS011;5801;50.804;12.638;2023-07-29T01:48:23;1.20;;;1.10;;
11488;SDS011;5801;50.804;12.638;2023-07-29T01:50:49;1.77;;;1.20;;
11488;SDS011;5801;50.804;12.638;2023-07-29T01:53:16;3.60;;;1.15;;
11488;SDS011;5801;50.804;12.638;2023-07-29T01:55:42;0.82;;;0.82;;
11488;SDS011;5801;50.804;12.638;2023-07-29T01:58:09;1.77;;;1.58;;
11488;SDS011;5801;50.804;12.638;2023-07-29T02:00:35;4.65;;;1.88;;
11488;SDS011;5801;50.804;12.638;2023-07-29T02:03:02;6.32;;;4.95;;
11488;SDS011;5801;50.804;12.638;2023-07-29T02:05:28;7.88;;;5.65;;
11488;SDS011;5801;50.804;12.638;2023-07-29T02:07:54;8.20;;;3.17;;
11488;SDS011;5801;50.804;12.638;2023-07-29T02:10:20;2.95;;;2.53;;
11488;SDS011;5801;50.804;12.638;2023-07-29T02:12:46;4.43;;;3.45;;
11488;SDS011;5801;50.804;12.638;2023-07-29T02:15:13;4.07;;;2.25;;
11488;SDS011;5801;50.804;12.638;2023-07-29T02:17:40;1.50;;;1.40;;
11488;SDS011;5801;50.804;12.638;2023-07-29T02:20:07;2.67;;;1.25;;
11488;SDS011;5801;50.804;12.638;2023-07-29T02:22:33;2.38;;;1.10;;
11488;SDS011;5801;50.804;12.638;2023-07-29T02:25:00;1.08;;;0.98;;
11488;SDS011;5801;50.804;12.638;2023-07-29T02:27:26;1.23;;;1.13;;
11488;SDS011;5801;50.804;12.638;2023-07-29T02:29:53;1.42;;;1.02;;
11488;SDS011;5801;50.804;12.638;2023-07-29T02:32:19;0.85;;;0.85;;
11488;SDS011;5801;50.804;12.638;2023-07-29T02:34:46;0.90;;;0.90;;
11488;SDS011;5801;50.804;12.638;2023-07-29T02:37:12;0.70;;;0.70;;
11488;SDS011;5801;50.804;12.638;2023-07-29T02:39:38;3.47;;;1.02;;
11488;SDS011;5801;50.804;12.638;2023-07-29T02:42:04;0.95;;;0.95;;
11488;SDS011;5801;50.804;12.638;2023-07-29T02:44:30;1.30;;;1.20;;
11488;SDS011;5801;50.804;12.638;2023-07-29T02:46:56;0.80;;;0.80;;
11488;SDS011;5801;50.804;12.638;2023-07-29T02:49:22;1.25;;;0.80;;
11488;SDS011;5801;50.804;12.638;2023-07-29T02:51:49;1.38;;;1.10;;
11488;SDS011;5801;50.804;12.638;2023-07-29T02:54:15;1.00;;;0.88;;
11488;SDS011;5801;50.804;12.638;2023-07-29T02:56:41;1.42;;;0.88;;
11488;SDS011;5801;50.804;12.638;2023-07-29T02:59:07;0.90;;;0.90;;
11488;SDS011;5801;50.804;12.638;2023-07-29T03:01:33;1.08;;;0.90;;
11488;SDS011;5801;50.804;12.638;2023-07-29T03:03:59;0.85;;;0.85;;
11488;SDS011;5801;50.804;12.638;2023-07-29T03:06:26;1.10;;;1.00;;
11488;SDS011;5801;50.804;12.638;2023-07-29T03:08:52;0.90;;;0.90;;
11488;SDS011;5801;50.804;12.638;2023-07-29T03:11:18;2.33;;;0.70;;
11488;SDS011;5801;50.804;12.638;2023-07-29T03:13:43;0.82;;;0.82;;
11488;SDS011;5801;50.804;12.638;2023-07-29T03:16:10;0.90;;;0.90;;
11488;SDS011;5801;50.804;12.638;2023-07-29T03:18:42;1.02;;;0.93;;
11488;SDS011;5801;50.804;12.638;2023-07-29T03:21:08;0.80;;;0.80;;
11488;SDS011;5801;50.804;12.638;2023-07-29T03:23:35;0.82;;;0.82;;
11488;SDS011;5801;50.804;12.638;2023-07-29T03:26:02;1.58;;;1.20;;
11488;SDS011;5801;50.804;12.638;2023-07-29T03:28:34;1.77;;;1.52;;
11488;SDS011;5801;50.804;12.638;2023-07-29T03:31:04;1.38;;;1.27;;
11488;SDS011;5801;50.804;12.638;2023-07-29T03:33:30;1.08;;;0.98;;
11488;SDS011;5801;50.804;12.638;2023-07-29T03:35:56;0.98;;;0.98;;
11488;SDS011;5801;50.804;12.638;2023-07-29T03:38:21;1.10;;;1.00;;
11488;SDS011;5801;50.804;12.638;2023-07-29T03:40:47;0.85;;;0.85;;
11488;SDS011;5801;50.804;12.638;2023-07-29T03:43:13;0.85;;;0.85;;
11488;SDS011;5801;50.804;12.638;2023-07-29T03:45:39;1.75;;;1.30;;
11488;SDS011;5801;50.804;12.638;2023-07-29T03:48:06;1.25;;;1.15;;
11488;SDS011;5801;50.804;12.638;2023-07-29T03:50:33;1.50;;;1.40;;
11488;SDS011;5801;50.804;12.638;2023-07-29T03:53:01;1.55;;;1.10;;
11488;SDS011;5801;50.804;12.638;2023-07-29T03:55:29;1.13;;;1.08;;
11488;SDS011;5801;50.804;12.638;2023-07-29T03:57:57;1.33;;;1.17;;
11488;SDS011;5801;50.804;12.638;2023-07-29T04:00:23;1.60;;;1.27;;
11488;SDS011;5801;50.804;12.638;2023-07-29T04:02:49;1.02;;;1.00;;
11488;SDS011;5801;50.804;12.638;2023-07-29T04:05:15;1.30;;;1.20;;
11488;SDS011;5801;50.804;12.638;2023-07-29T04:07:41;1.85;;;1.10;;
11488;SDS011;5801;50.804;12.638;2023-07-29T04:10:08;1.77;;;1.30;;
11488;SDS011;5801;50.804;12.638;2023-07-29T04:12:34;1.92;;;1.25;;
11488;SDS011;5801;50.804;12.638;2023-07-29T04:15:00;1.20;;;1.10;;
11488;SDS011;5801;50.804;12.638;2023-07-29T04:17:26;1.60;;;1.50;;
11488;SDS011;5801;50.804;12.638;2023-07-29T04:19:52;1.48;;;1.38;;
11488;SDS011;5801;50.804;12.638;2023-07-29T04:22:18;1.67;;;1.58;;
11488;SDS011;5801;50.804;12.638;2023-07-29T04:24:44;1.48;;;1.38;;
11488;SDS011;5801;50.804;12.638;2023-07-29T04:27:11;2.97;;;0.93;;
11488;SDS011;5801;50.804;12.638;2023-07-29T04:29:36;1.67;;;1.30;;
11488;SDS011;5801;50.804;12.638;2023-07-29T04:32:03;1.77;;;1.35;;
11488;SDS011;5801;50.804;12.638;2023-07-29T04:34:29;1.23;;;1.13;;
11488;SDS011;5801;50.804;12.638;2023-07-29T04:36:55;2.65;;;1.17;;
11488;SDS011;5801;50.804;12.638;2023-07-29T04:39:22;1.35;;;1.25;;
11488;SDS011;5801;50.804;12.638;2023-07-29T04:41:48;1.58;;;1.48;;
11488;SDS011;5801;50.804;12.638;2023-07-29T04:44:14;1.40;;;1.30;;
11488;SDS011;5801;50.804;12.638;2023-07-29T04:46:40;1.60;;;1.50;;
11488;SDS011;5801;50.804;12.638;2023-07-29T04:49:06;1.52;;;1.40;;
11488;SDS011;5801;50.804;12.638;2023-07-29T04:51:32;1.60;;;1.50;;
11488;SDS011;5801;50.804;12.638;2023-07-29T04:53:58;1.92;;;1.48;;
11488;SDS011;5801;50.804;12.638;2023-07-29T04:56:25;3.58;;;1.40;;
11488;SDS011;5801;50.804;12.638;2023-07-29T04:58:51;5.28;;;1.40;;
11488;SDS011;5801;50.804;12.638;2023-07-29T05:01:17;2.55;;;1.58;;
11488;SDS011;5801;50.804;12.638;2023-07-29T05:03:44;2.88;;;1.30;;
11488;SDS011;5801;50.804;12.638;2023-07-29T05:06:10;1.50;;;1.40;;
11488;SDS011;5801;50.804;12.638;2023-07-29T05:08:36;2.22;;;1.42;;
11488;SDS011;5801;50.804;12.638;2023-07-29T05:11:02;1.60;;;1.50;;
11488;SDS011;5801;50.804;12.638;2023-07-29T05:13:27;1.35;;;1.25;;
11488;SDS011;5801;50.804;12.638;2023-07-29T05:15:54;1.40;;;1.30;;
11488;SDS011;5801;50.804;12.638;2023-07-29T05:18:20;1.40;;;1.30;;
11488;SDS011;5801;50.804;12.638;2023-07-29T05:20:46;1.60;;;1.50;;
11488;SDS011;5801;50.804;12.638;2023-07-29T05:23:12;1.70;;;1.50;;
11488;SDS011;5801;50.804;12.638;2023-07-29T05:25:39;1.30;;;1.20;;
11488;SDS011;5801;50.804;12.638;2023-07-29T05:28:05;1.35;;;1.25;;
11488;SDS011;5801;50.804;12.638;2023-07-29T05:30:31;1.55;;;1.45;;
11488;SDS011;5801;50.804;12.638;2023-07-29T05:32:58;1.75;;;1.65;;
11488;SDS011;5801;50.804;12.638;2023-07-29T05:35:25;3.53;;;1.40;;
11488;SDS011;5801;50.804;12.638;2023-07-29T05:37:51;3.03;;;1.48;;
11488;SDS011;5801;50.804;12.638;2023-07-29T05:40:17;1.30;;;1.20;;
11488;SDS011;5801;50.804;12.638;2023-07-29T05:42:43;1.40;;;1.30;;
11488;SDS011;5801;50.804;12.638;2023-07-29T05:45:10;1.17;;;1.08;;
11488;SDS011;5801;50.804;12.638;2023-07-29T05:47:36;1.30;;;1.20;;
11488;SDS011;5801;50.804;12.638;2023-07-29T05:50:02;1.15;;;1.05;;
11488;SDS011;5801;50.804;12.638;2023-07-29T05:52:29;0.90;;;0.90;;
11488;SDS011;5801;50.804;12.638;2023-07-29T05:54:58;1.00;;;1.00;;
11488;SDS011;5801;50.804;12.638;2023-07-29T05:57:24;1.77;;;0.90;;
11488;SDS011;5801;50.804;12.638;2023-07-29T05:59:50;1.15;;;1.05;;
11488;SDS011;5801;50.804;12.638;2023-07-29T06:02:16;1.42;;;1.00;;
11488;SDS011;5801;50.804;12.638;2023-07-29T06:04:42;10.05;;;2.78;;
11488;SDS011;5801;50.804;12.638;2023-07-29T06:07:08;3.15;;;2.70;;
11488;SDS011;5801;50.804;12.638;2023-07-29T06:09:34;1.90;;;1.80;;
11488;SDS011;5801;50.804;12.638;2023-07-29T06:12:00;1.23;;;1.13;;
11488;SDS011;5801;50.804;12.638;2023-07-29T06:14:26;1.48;;;1.13;;
11488;SDS011;5801;50.804;12.638;2023-07-29T06:16:52;1.40;;;1.30;;
11488;SDS011;5801;50.804;12.638;2023-07-29T06:19:22;1.40;;;1.30;;
11488;SDS011;5801;50.804;12.638;2023-07-29T06:21:48;1.20;;;1.10;;
11488;SDS011;5801;50.804;12.638;2023-07-29T06:24:14;1.63;;;1.30;;
11488;SDS011;5801;50.804;12.638;2023-07-29T06:26:39;1.20;;;1.10;;
11488;SDS011;5801;50.804;12.638;2023-07-29T06:29:06;1.38;;;0.90;;
11488;SDS011;5801;50.804;12.638;2023-07-29T06:31:31;1.75;;;0.80;;
11488;SDS011;5801;50.804;12.638;2023-07-29T06:33:58;1.10;;;1.00;;
11488;SDS011;5801;50.804;12.638;2023-07-29T06:36:24;1.58;;;1.02;;
11488;SDS011;5801;50.804;12.638;2023-07-29T06:38:50;1.08;;;1.08;;
11488;SDS011;5801;50.804;12.638;2023-07-29T06:41:16;1.73;;;1.20;;
11488;SDS011;5801;50.804;12.638;2023-07-29T06:43:42;1.60;;;1.33;;
11488;SDS011;5801;50.804;12.638;2023-07-29T06:46:08;2.63;;;2.20;;
11488;SDS011;5801;50.804;12.638;2023-07-29T06:48:34;3.47;;;3.15;;
11488;SDS011;5801;50.804;12.638;2023-07-29T06:51:01;3.42;;;1.50;;
11488;SDS011;5801;50.804;12.638;2023-07-29T06:53:27;1.30;;;1.10;;
11488;SDS011;5801;50.804;12.638;2023-07-29T06:55:53;4.43;;;2.58;;
11488;SDS011;5801;50.804;12.638;2023-07-29T06:58:19;2.38;;;1.38;;
11488;SDS011;5801;50.804;12.638;2023-07-29T07:00:46;1.75;;;1.58;;
11488;SDS011;5801;50.804;12.638;2023-07-29T07:03:11;1.08;;;0.90;;
11488;SDS011;5801;50.804;12.638;2023-07-29T07:05:38;0.90;;;0.90;;
11488;SDS011;5801;50.804;12.638;2023-07-29T07:08:03;1.52;;;1.10;;
11488;SDS011;5801;50.804;12.638;2023-07-29T07:10:29;1.00;;;0.90;;
11488;SDS011;5801;50.804;12.638;2023-07-29T07:12:55;2.58;;;1.15;;
11488;SDS011;5801;50.804;12.638;2023-07-29T07:15:22;1.00;;;0.98;;
11488;SDS011;5801;50.804;12.638;2023-07-29T07:17:48;2.78;;;1.27;;
11488;SDS011;5801;50.804;12.638;2023-07-29T07:20:14;2.10;;;1.02;;
11488;SDS011;5801;50.804;12.638;2023-07-29T07:22:41;1.20;;;1.10;;
11488;SDS011;5801;50.804;12.638;2023-07-29T07:25:07;1.40;;;1.30;;
11488;SDS011;5801;50.804;12.638;2023-07-29T07:27:33;1.38;;;1.27;;
11488;SDS011;5801;50.804;12.638;2023-07-29T07:29:59;1.45;;;1.05;;
11488;SDS011;5801;50.804;12.638;2023-07-29T07:32:25;0.80;;;0.80;;
11488;SDS011;5801;50.804;12.638;2023-07-29T07:34:51;1.20;;;1.10;;
11488;SDS011;5801;50.804;12.638;2023-07-29T07:37:17;1.20;;;1.10;;
11488;SDS011;5801;50.804;12.638;2023-07-29T07:39:43;1.20;;;1.10;;
11488;SDS011;5801;50.804;12.638;2023-07-29T07:42:09;1.48;;;0.90;;
11488;SDS011;5801;50.804;12.638;2023-07-29T07:44:35;2.63;;;1.17;;
11488;SDS011;5801;50.804;12.638;2023-07-29T07:47:01;1.02;;;0.93;;
11488;SDS011;5801;50.804;12.638;2023-07-29T07:49:27;1.17;;;1.08;;
11488;SDS011;5801;50.804;12.638;2023-07-29T07:51:53;1.65;;;1.02;;
11488;SDS011;5801;50.804;12.638;2023-07-29T07:54:19;1.60;;;1.00;;
11488;SDS011;5801;50.804;12.638;2023-07-29T07:56:45;1.05;;;1.00;;
11488;SDS011;5801;50.804;12.638;2023-07-29T07:59:11;1.00;;;1.00;;
11488;SDS011;5801;50.804;12.638;2023-07-29T08:01:38;0.90;;;0.90;;
11488;SDS011;5801;50.804;12.638;2023-07-29T08:04:04;1.40;;;1.02;;
11488;SDS011;5801;50.804;12.638;2023-07-29T08:06:31;1.45;;;1.05;;
11488;SDS011;5801;50.804;12.638;2023-07-29T08:08:57;1.88;;;1.15;;
11488;SDS011;5801;50.804;12.638;2023-07-29T08:11:23;1.80;;;1.35;;
11488;SDS011;5801;50.804;12.638;2023-07-29T08:13:50;2.00;;;1.30;;
11488;SDS011;5801;50.804;12.638;2023-07-29T08:16:16;1.15;;;1.05;;
11488;SDS011;5801;50.804;12.638;2023-07-29T08:18:43;2.85;;;0.98;;
11488;SDS011;5801;50.804;12.638;2023-07-29T08:21:09;1.45;;;1.00;;
11488;SDS011;5801;50.804;12.638;2023-07-29T08:23:35;1.70;;;1.05;;
11488;SDS011;5801;50.804;12.638;2023-07-29T08:26:02;1.25;;;0.90;;
11488;SDS011;5801;50.804;12.638;2023-07-29T08:28:32;1.00;;;0.90;;
11488;SDS011;5801;50.804;12.638;2023-07-29T08:31:00;0.88;;;0.80;;
11488;SDS011;5801;50.804;12.638;2023-07-29T08:33:26;2.03;;;1.00;;
11488;SDS011;5801;50.804;12.638;2023-07-29T08:35:53;0.73;;;0.73;;
11488;SDS011;5801;50.804;12.638;2023-07-29T08:38:19;0.82;;;0.82;;
11488;SDS011;5801;50.804;12.638;2023-07-29T08:40:49;0.90;;;0.90;;
11488;SDS011;5801;50.804;12.638;2023-07-29T08:43:31;1.02;;;0.75;;
11488;SDS011;5801;50.804;12.638;2023-07-29T08:45:59;3.30;;;0.90;;
11488;SDS011;5801;50.804;12.638;2023-07-29T08:48:29;0.77;;;0.77;;
11488;SDS011;5801;50.804;12.638;2023-07-29T08:50:59;1.45;;;1.00;;
11488;SDS011;5801;50.804;12.638;2023-07-29T08:53:27;1.02;;;0.93;;
11488;SDS011;5801;50.804;12.638;2023-07-29T08:55:53;1.50;;;1.33;;
11488;SDS011;5801;50.804;12.638;2023-07-29T08:58:20;1.20;;;1.10;;
11488;SDS011;5801;50.804;12.638;2023-07-29T09:00:47;1.00;;;0.90;;
11488;SDS011;5801;50.804;12.638;2023-07-29T09:03:13;1.80;;;1.20;;
11488;SDS011;5801;50.804;12.638;2023-07-29T09:05:39;1.13;;;0.90;;
11488;SDS011;5801;50.804;12.638;2023-07-29T09:08:05;2.35;;;0.90;;
11488;SDS011;5801;50.804;12.638;2023-07-29T09:10:35;1.35;;;0.85;;
11488;SDS011;5801;50.804;12.638;2023-07-29T09:13:02;0.85;;;0.75;;
11488;SDS011;5801;50.804;12.638;2023-07-29T09:15:29;0.80;;;0.80;;
11488;SDS011;5801;50.804;12.638;2023-07-29T09:17:57;0.60;;;0.60;;
11488;SDS011;5801;50.804;12.638;2023-07-29T09:20:27;1.58;;;1.25;;
11488;SDS011;5801;50.804;12.638;2023-07-29T09:22:54;1.08;;;0.70;;
11488;SDS011;5801;50.804;12.638;2023-07-29T09:25:26;0.90;;;0.90;;
11488;SDS011;5801;50.804;12.638;2023-07-29T09:28:00;1.17;;;1.00;;
11488;SDS011;5801;50.804;12.638;2023-07-29T09:30:27;2.17;;;1.00;;
11488;SDS011;5801;50.804;12.638;2023-07-29T09:32:57;2.63;;;0.73;;
11488;SDS011;5801;50.804;12.638;2023-07-29T09:35:23;0.82;;;0.82;;
11488;SDS011;5801;50.804;12.638;2023-07-29T09:37:51;1.13;;;1.00;;
11488;SDS011;5801;50.804;12.638;2023-07-29T09:40:18;3.55;;;1.10;;
11488;SDS011;5801;50.804;12.638;2023-07-29T09:42:47;3.22;;;0.90;;
11488;SDS011;5801;50.804;12.638;2023-07-29T09:47:47;1.83;;;1.10;;
11488;SDS011;5801;50.804;12.638;2023-07-29T09:50:14;1.08;;;1.00;;
11488;SDS011;5801;50.804;12.638;2023-07-29T09:52:40;0.63;;;0.60;;
11488;SDS011;5801;50.804;12.638;2023-07-29T09:55:07;2.67;;;0.80;;
11488;SDS011;5801;50.804;12.638;2023-07-29T09:57:37;0.60;;;0.60;;
11488;SDS011;5801;50.804;12.638;2023-07-29T10:00:04;0.60;;;0.60;;
11488;SDS011;5801;50.804;12.638;2023-07-29T10:02:35;0.65;;;0.65;;
11488;SDS011;5801;50.804;12.638;2023-07-29T10:05:06;0.70;;;0.70;;
11488;SDS011;5801;50.804;12.638;2023-07-29T10:07:33;0.55;;;0.55;;
11488;SDS011;5801;50.804;12.638;2023-07-29T10:10:00;0.85;;;0.50;;
11488;SDS011;5801;50.804;12.638;2023-07-29T10:12:28;0.50;;;0.50;;
11488;SDS011;5801;50.804;12.638;2023-07-29T10:14:55;0.70;;;0.70;;
11488;SDS011;5801;50.804;12.638;2023-07-29T10:17:33;0.65;;;0.65;;
11488;SDS011;5801;50.804;12.638;2023-07-29T10:20:03;0.70;;;0.70;;
11488;SDS011;5801;50.804;12.638;2023-07-29T10:22:36;0.60;;;0.60;;
11488;SDS011;5801;50.804;12.638;2023-07-29T10:25:16;4.70;;;0.73;;
11488;SDS011;5801;50.804;12.638;2023-07-29T10:27:48;0.80;;;0.70;;
11488;SDS011;5801;50.804;12.638;2023-07-29T10:30:15;1.52;;;1.00;;
11488;SDS011;5801;50.804;12.638;2023-07-29T10:32:44;2.28;;;0.70;;
11488;SDS011;5801;50.804;12.638;2023-07-29T10:35:13;0.80;;;0.80;;
11488;SDS011;5801;50.804;12.638;2023-07-29T10:37:40;0.90;;;0.60;;
11488;SDS011;5801;50.804;12.638;2023-07-29T10:40:08;0.82;;;0.82;;
11488;SDS011;5801;50.804;12.638;2023-07-29T10:42:36;2.85;;;0.88;;
11488;SDS011;5801;50.804;12.638;2023-07-29T10:45:19;1.20;;;0.75;;
11488;SDS011;5801;50.804;12.638;2023-07-29T10:47:46;2.20;;;0.77;;
11488;SDS011;5801;50.804;12.638;2023-07-29T10:50:19;1.48;;;0.60;;
11488;SDS011;5801;50.804;12.638;2023-07-29T10:52:52;1.00;;;0.82;;
11488;SDS011;5801;50.804;12.638;2023-07-29T10:55:26;1.77;;;0.75;;
11488;SDS011;5801;50.804;12.638;2023-07-29T10:57:52;1.65;;;0.70;;
11488;SDS011;5801;50.804;12.638;2023-07-29T11:00:33;9.15;;;1.02;;
11488;SDS011;5801;50.804;12.638;2023-07-29T11:03:01;2.40;;;1.30;;
11488;SDS011;5801;50.804;12.638;2023-07-29T11:05:41;0.98;;;0.85;;
11488;SDS011;5801;50.804;12.638;2023-07-29T11:08:44;1.00;;;0.90;;
11488;SDS011;5801;50.804;12.638;2023-07-29T11:11:04;1.00;;;0.95;;
11488;SDS011;5801;50.804;12.638;2023-07-29T11:13:32;0.93;;;0.82;;
11488;SDS011;5801;50.804;12.638;2023-07-29T11:16:00;1.52;;;1.08;;
11488;SDS011;5801;50.804;12.638;2023-07-29T11:18:27;1.58;;;1.00;;
11488;SDS011;5801;50.804;12.638;2023-07-29T11:20:54;1.23;;;0.90;;
11488;SDS011;5801;50.804;12.638;2023-07-29T11:23:27;1.60;;;1.00;;
11488;SDS011;5801;50.804;12.638;2023-07-29T11:25:57;4.30;;;0.77;;
11488;SDS011;5801;50.804;12.638;2023-07-29T11:28:25;1.58;;;0.80;;
11488;SDS011;5801;50.804;12.638;2023-07-29T11:30:51;1.55;;;0.82;;
11488;SDS011;5801;50.804;12.638;2023-07-29T11:33:22;1.77;;;0.90;;
11488;SDS011;5801;50.804;12.638;2023-07-29T11:35:53;1.58;;;0.70;;
11488;SDS011;5801;50.804;12.638;2023-07-29T11:38:20;1.77;;;0.80;;
11488;SDS011;5801;50.804;12.638;2023-07-29T11:40:53;0.50;;;0.50;;
11488;SDS011;5801;50.804;12.638;2023-07-29T11:43:20;1.25;;;1.10;;
11488;SDS011;5801;50.804;12.638;2023-07-29T11:45:46;1.00;;;0.90;;
11488;SDS011;5801;50.804;12.638;2023-07-29T11:48:13;1.25;;;0.60;;
11488;SDS011;5801;50.804;12.638;2023-07-29T11:50:39;1.00;;;0.63;;
11488;SDS011;5801;50.804;12.638;2023-07-29T11:53:05;0.70;;;0.70;;
11488;SDS011;5801;50.804;12.638;2023-07-29T11:55:31;1.05;;;0.70;;
11488;SDS011;5801;50.804;12.638;2023-07-29T11:57:59;0.60;;;0.60;;
11488;SDS011;5801;50.804;12.638;2023-07-29T12:00:27;0.60;;;0.60;;
11488;SDS011;5801;50.804;12.638;2023-07-29T12:02:54;0.50;;;0.50;;
11488;SDS011;5801;50.804;12.638;2023-07-29T12:05:21;1.38;;;0.70;;
11488;SDS011;5801;50.804;12.638;2023-07-29T12:07:48;0.60;;;0.60;;
11488;SDS011;5801;50.804;12.638;2023-07-29T12:10:14;0.30;;;0.30;;
11488;SDS011;5801;50.804;12.638;2023-07-29T12:12:44;0.70;;;0.70;;
11488;SDS011;5801;50.804;12.638;2023-07-29T12:15:11;0.50;;;0.50;;
11488;SDS011;5801;50.804;12.638;2023-07-29T12:17:40;1.15;;;0.70;;
11488;SDS011;5801;50.804;12.638;2023-07-29T12:20:10;0.57;;;0.57;;
11488;SDS011;5801;50.804;12.638;2023-07-29T12:22:38;0.30;;;0.30;;
11488;SDS011;5801;50.804;12.638;2023-07-29T12:25:05;1.05;;;0.60;;
11488;SDS011;5801;50.804;12.638;2023-07-29T12:27:32;0.40;;;0.40;;
11488;SDS011;5801;50.804;12.638;2023-07-29T12:29:57;0.47;;;0.47;;
11488;SDS011;5801;50.804;12.638;2023-07-29T12:32:28;1.55;;;0.50;;
11488;SDS011;5801;50.804;12.638;2023-07-29T12:34:55;0.68;;;0.68;;
11488;SDS011;5801;50.804;12.638;2023-07-29T12:37:30;0.80;;;0.60;;
11488;SDS011;5801;50.804;12.638;2023-07-29T12:39:57;0.85;;;0.70;;
11488;SDS011;5801;50.804;12.638;2023-07-29T12:42:23;1.27;;;0.80;;
11488;SDS011;5801;50.804;12.638;2023-07-29T12:44:49;0.82;;;0.60;;
11488;SDS011;5801;50.804;12.638;2023-07-29T12:47:15;0.65;;;0.65;;
11488;SDS011;5801;50.804;12.638;2023-07-29T12:49:41;0.50;;;0.50;;
11488;SDS011;5801;50.804;12.638;2023-07-29T12:52:06;0.60;;;0.60;;
11488;SDS011;5801;50.804;12.638;2023-07-29T12:54:32;1.02;;;0.73;;
11488;SDS011;5801;50.804;12.638;2023-07-29T12:56:59;0.70;;;0.70;;
11488;SDS011;5801;50.804;12.638;2023-07-29T12:59:25;1.02;;;0.80;;
11488;SDS011;5801;50.804;12.638;2023-07-29T13:01:51;0.80;;;0.80;;
11488;SDS011;5801;50.804;12.638;2023-07-29T13:04:17;1.30;;;0.80;;
11488;SDS011;5801;50.804;12.638;2023-07-29T13:06:43;1.58;;;1.10;;
11488;SDS011;5801;50.804;12.638;2023-07-29T13:09:09;0.60;;;0.60;;
11488;SDS011;5801;50.804;12.638;2023-07-29T13:11:35;1.52;;;0.80;;
11488;SDS011;5801;50.804;12.638;2023-07-29T13:14:01;1.45;;;0.80;;
11488;SDS011;5801;50.804;12.638;2023-07-29T13:16:28;1.63;;;0.60;;
11488;SDS011;5801;50.804;12.638;2023-07-29T13:18:54;1.50;;;0.82;;
11488;SDS011;5801;50.804;12.638;2023-07-29T13:21:20;2.92;;;0.95;;
11488;SDS011;5801;50.804;12.638;2023-07-29T13:23:46;1.77;;;1.13;;
11488;SDS011;5801;50.804;12.638;2023-07-29T13:26:12;2.15;;;0.95;;
11488;SDS011;5801;50.804;12.638;2023-07-29T13:28:38;0.80;;;0.80;;
11488;SDS011;5801;50.804;12.638;2023-07-29T13:31:04;1.05;;;0.95;;
11488;SDS011;5801;50.804;12.638;2023-07-29T13:33:30;1.17;;;0.70;;
11488;SDS011;5801;50.804;12.638;2023-07-29T13:35:59;1.02;;;0.93;;
11488;SDS011;5801;50.804;12.638;2023-07-29T13:38:28;1.48;;;0.93;;
11488;SDS011;5801;50.804;12.638;2023-07-29T13:40:54;0.90;;;0.80;;
11488;SDS011;5801;50.804;12.638;2023-07-29T13:43:21;1.63;;;0.80;;
11488;SDS011;5801;50.804;12.638;2023-07-29T13:45:47;1.42;;;1.13;;
11488;SDS011;5801;50.804;12.638;2023-07-29T13:48:15;3.10;;;1.05;;
11488;SDS011;5801;50.804;12.638;2023-07-29T13:50:41;1.00;;;0.90;;
11488;SDS011;5801;50.804;12.638;2023-07-29T13:53:08;1.13;;;0.82;;
11488;SDS011;5801;50.804;12.638;2023-07-29T13:55:34;1.08;;;0.80;;
11488;SDS011;5801;50.804;12.638;2023-07-29T13:58:00;1.25;;;0.98;;
11488;SDS011;5801;50.804;12.638;2023-07-29T14:00:26;0.80;;;0.70;;
11488;SDS011;5801;50.804;12.638;2023-07-29T14:02:52;0.95;;;0.90;;
11488;SDS011;5801;50.804;12.638;2023-07-29T14:05:18;1.85;;;0.80;;
11488;SDS011;5801;50.804;12.638;2023-07-29T14:07:44;1.17;;;0.90;;
11488;SDS011;5801;50.804;12.638;2023-07-29T14:10:10;0.73;;;0.73;;
11488;SDS011;5801;50.804;12.638;2023-07-29T14:12:35;1.00;;;0.90;;
11488;SDS011;5801;50.804;12.638;2023-07-29T14:15:02;2.53;;;0.95;;
11488;SDS011;5801;50.804;12.638;2023-07-29T14:17:29;1.70;;;0.93;;
11488;SDS011;5801;50.804;12.638;2023-07-29T14:19:55;1.00;;;0.90;;
11488;SDS011;5801;50.804;12.638;2023-07-29T14:22:21;1.88;;;0.70;;
11488;SDS011;5801;50.804;12.638;2023-07-29T14:24:47;0.73;;;0.73;;
11488;SDS011;5801;50.804;12.638;2023-07-29T14:27:13;1.48;;;1.05;;
11488;SDS011;5801;50.804;12.638;2023-07-29T14:29:41;1.73;;;1.10;;
11488;SDS011;5801;50.804;12.638;2023-07-29T14:32:07;1.45;;;0.98;;
11488;SDS011;5801;50.804;12.638;2023-07-29T14:34:33;0.88;;;0.88;;
11488;SDS011;5801;50.804;12.638;2023-07-29T14:36:59;0.95;;;0.90;;
11488;SDS011;5801;50.804;12.638;2023-07-29T14:39:25;1.30;;;1.00;;
11488;SDS011;5801;50.804;12.638;2023-07-29T14:41:51;1.20;;;0.77;;
11488;SDS011;5801;50.804;12.638;2023-07-29T14:44:17;1.10;;;1.00;;
11488;SDS011;5801;50.804;12.638;2023-07-29T14:46:43;1.67;;;0.95;;
11488;SDS011;5801;50.804;12.638;2023-07-29T14:49:09;1.10;;;1.00;;
11488;SDS011;5801;50.804;12.638;2023-07-29T14:51:35;7.68;;;1.00;;
11488;SDS011;5801;50.804;12.638;2023-07-29T14:54:02;2.05;;;0.90;;
11488;SDS011;5801;50.804;12.638;2023-07-29T14:56:28;0.70;;;0.70;;